Time;durP1;ratioP1;P1;durP2;ratioP2;P2;SDS_P1;SDS_P2;PMS_P1;PMS_P2;Temp;Humidity;BMP_temperature;BMP_pressure;BME280_temperature;BME280_humidity;BME280_pressure;Samples;Min_cycle;Max_cycle;Signal;HPM_P1;HPM_P2
2022/12/30 00:01:15;;;;;;;33.13;18.87;;;;;;;0.82;83.94;95996.20;1787308;80;21062;-71
2022/12/30 00:03:42;;;;;;;34.10;18.33;;;;;;;0.81;84.10;95997.05;1787140;80;21002;-70
2022/12/30 00:06:16;;;;;;;25.43;16.00;;;;;;;0.76;84.21;95993.46;1787248;80;20998;-69
2022/12/30 00:08:50;;;;;;;34.27;18.77;;;;;;;0.78;85.02;95996.08;1787191;80;20963;-70
2022/12/30 00:11:21;;;;;;;47.53;24.40;;;;;;;0.77;85.01;95999.53;1787077;80;21010;-70
2022/12/30 00:34:34;;;;;;;31.27;18.83;;;;;;;1.05;84.80;95995.89;1795642;80;20979;-70
2022/12/30 00:37:01;;;;;;;32.43;18.43;;;;;;;1.07;84.87;95991.63;1795518;80;21033;-70
2022/12/30 00:39:28;;;;;;;30.10;18.63;;;;;;;1.13;85.01;95996.95;1795520;80;21022;-70
2022/12/30 00:44:39;;;;;;;37.90;20.83;;;;;;;1.19;85.24;96000.14;1795442;80;20978;-70
2022/12/30 00:47:07;;;;;;;36.53;21.87;;;;;;;1.21;85.00;95997.13;1795526;80;20963;-70
2022/12/30 00:57:52;;;;;;;32.27;19.73;;;;;;;1.18;84.40;96013.96;1795389;80;21097;-70
2022/12/30 01:00:18;;;;;;;26.20;16.60;;;;;;;1.19;84.33;96014.02;1795429;80;20998;-70
2022/12/30 01:02:45;;;;;;;35.60;19.23;;;;;;;1.21;84.23;96001.03;1795425;80;20998;-70
2022/12/30 01:05:11;;;;;;;36.97;19.83;;;;;;;1.21;84.16;95999.73;1795270;80;21002;-70
2022/12/30 01:07:38;;;;;;;33.27;19.87;;;;;;;1.22;84.05;96000.21;1795521;80;20990;-70
2022/12/30 01:10:05;;;;;;;31.73;20.03;;;;;;;1.26;84.32;96001.63;1795480;80;21017;-70
2022/12/30 01:12:31;;;;;;;33.17;20.67;;;;;;;1.32;84.32;96002.61;1795142;80;20987;-70
2022/12/30 01:14:59;;;;;;;30.90;19.43;;;;;;;1.32;84.08;96001.31;1795437;80;21049;-69
2022/12/30 01:17:30;;;;;;;37.70;20.83;;;;;;;1.33;84.16;95997.42;1795406;80;20998;-69
2022/12/30 01:19:56;;;;;;;29.83;18.60;;;;;;;1.34;83.96;95996.61;1795565;80;21489;-69
2022/12/30 01:22:23;;;;;;;35.47;20.07;;;;;;;1.29;83.70;95995.19;1795494;80;20981;-69
2022/12/30 01:24:50;;;;;;;35.90;20.70;;;;;;;1.24;83.66;95996.80;1795375;80;21026;-69
2022/12/30 01:27:17;;;;;;;39.13;20.63;;;;;;;1.21;83.91;95990.64;1795191;80;21019;-69
2022/12/30 01:29:45;;;;;;;32.37;20.20;;;;;;;1.20;84.05;95989.77;1795403;80;21002;-70
2022/12/30 01:32:16;;;;;;;39.10;21.93;;;;;;;1.21;84.28;95982.84;1795486;80;21018;-70
2022/12/30 01:34:43;;;;;;;33.53;19.17;;;;;;;1.19;83.95;95988.02;1795296;80;21026;-69
2022/12/30 01:37:10;;;;;;;30.60;17.83;;;;;;;1.20;83.25;95987.16;1795428;80;21503;-69
2022/12/30 01:39:37;;;;;;;34.47;20.37;;;;;;;1.19;83.29;95985.42;1795294;80;21026;-69
2022/12/30 01:42:12;;;;;;;33.40;20.87;;;;;;;1.21;83.68;95992.84;1795324;80;20987;-70
2022/12/30 01:45:02;;;;;;;33.97;20.00;;;;;;;1.21;83.26;95985.05;1789461;80;21090;-69
2022/12/30 01:47:58;;;;;;;29.73;17.47;;;;;;;1.23;83.62;95991.13;1795370;80;20958;-70
2022/12/30 01:50:52;;;;;;;32.87;20.73;;;;;;;1.23;83.20;95986.36;1795513;80;21007;-69
2022/12/30 01:53:27;;;;;;;35.90;20.03;;;;;;;1.23;83.44;95983.33;1795666;80;21456;-69
2022/12/30 01:56:14;;;;;;;37.30;21.33;;;;;;;1.27;83.58;95980.40;1795453;80;21026;-69
2022/12/30 01:58:51;;;;;;;37.50;20.87;;;;;;;1.27;83.51;95980.40;1795662;80;21033;-70
2022/12/30 02:01:18;;;;;;;32.80;20.20;;;;;;;1.28;83.30;95988.64;1795466;80;20990;-69
2022/12/30 02:03:50;;;;;;;36.00;20.63;;;;;;;1.27;83.41;95990.38;1795381;80;21476;-69
2022/12/30 02:06:21;;;;;;;32.73;20.43;;;;;;;1.31;83.34;95995.24;1794784;80;20963;-69
2022/12/30 02:08:47;;;;;;;30.83;18.50;;;;;;;1.31;83.31;95993.94;1795390;80;21480;-69
2022/12/30 02:11:14;;;;;;;36.63;20.30;;;;;;;1.30;83.27;95993.03;1795455;80;20998;-70
2022/12/30 02:13:40;;;;;;;30.33;18.00;;;;;;;1.28;83.15;95988.64;1795402;80;21033;-70
2022/12/30 02:16:21;;;;;;;31.33;18.73;;;;;;;1.25;83.09;95985.98;1795183;80;21029;-69
2022/12/30 02:19:11;;;;;;;31.50;20.37;;;;;;;1.21;83.10;95990.64;1795143;80;20979;-69
2022/12/30 02:21:43;;;;;;;30.53;15.87;;;;;;;1.16;83.22;95994.45;1795434;80;21086;-69
2022/12/30 02:24:18;;;;;;;33.93;19.97;;;;;;;1.12;83.12;95997.80;1795061;80;20989;-69
2022/12/30 02:27:17;;;;;;;31.63;18.43;;;;;;;1.10;83.45;95991.69;1784692;80;21031;-69
2022/12/30 02:30:26;;;;;;;28.87;17.87;;;;;;;1.05;83.60;95994.59;1787007;80;21034;-69
2022/12/30 02:33:28;;;;;;;27.30;15.50;;;;;;;1.00;83.88;96001.41;1787054;80;21556;-69
2022/12/30 02:36:18;;;;;;;29.63;16.57;;;;;;;0.97;84.10;95993.54;1787142;80;21021;-70
2022/12/30 02:39:08;;;;;;;32.10;19.13;;;;;;;0.92;84.17;95989.95;1787062;80;21023;-69
2022/12/30 02:44:39;;;;;;;26.95;16.35;;;;;;;0.83;84.58;95977.20;1787248;80;21029;-69
2022/12/30 02:47:37;;;;;;;34.77;20.30;;;;;;;0.78;84.40;95977.90;1784887;80;20971;-69
2022/12/30 02:53:12;;;;;;;31.30;19.50;;;;;;;0.70;84.65;95989.81;1787180;80;21513;-69
2022/12/30 02:55:38;;;;;;;45.73;25.77;;;;;;;0.64;84.38;95992.72;1787286;80;21022;-69
2022/12/30 02:58:05;;;;;;;45.23;26.10;;;;;;;0.59;84.76;95991.72;1786883;80;20991;-69
2022/12/30 03:04:31;;;;;;;43.70;25.53;;;;;;;0.51;84.37;95980.27;1787266;80;21980;-69
2022/12/30 03:07:39;;;;;;;43.97;25.90;;;;;;;0.47;85.18;95987.92;1787310;80;21011;-69
2022/12/30 03:13:12;;;;;;;28.83;17.00;;;;;;;0.31;84.89;95994.44;1637777;87;21520;-69
2022/12/30 03:15:58;;;;;;;35.47;21.47;;;;;;;0.30;85.19;95993.53;1792106;78;21037;-70
2022/12/30 03:18:27;;;;;;;33.50;19.77;;;;;;;0.32;85.55;96003.54;1830810;78;20987;-70
2022/12/30 03:20:54;;;;;;;33.73;20.90;;;;;;;0.33;85.93;96001.42;1831731;78;21094;-69
2022/12/30 03:28:58;;;;;;;45.53;25.50;;;;;;;0.31;85.40;96006.98;1837675;78;20991;-70
2022/12/30 03:31:25;;;;;;;44.23;25.50;;;;;;;0.31;85.90;96010.88;1837598;78;20947;-70
2022/12/30 03:33:52;;;;;;;43.97;26.23;;;;;;;0.38;86.10;96005.02;1837601;78;21461;-69
2022/12/30 03:36:33;;;;;;;38.37;23.37;;;;;;;0.39;86.16;96009.78;1832405;78;21092;-69
2022/12/30 03:39:20;;;;;;;41.80;23.60;;;;;;;0.36;85.61;96013.18;1836114;78;20988;-70
2022/12/30 03:41:49;;;;;;;38.27;22.33;;;;;;;0.42;86.11;96015.92;1837438;78;21003;-70
2022/12/30 03:44:19;;;;;;;40.43;22.73;;;;;;;0.47;86.19;96019.08;1833011;78;20955;-70
2022/12/30 03:46:47;;;;;;;39.17;22.63;;;;;;;0.56;86.63;96006.36;1837495;78;21007;-69
2022/12/30 03:49:16;;;;;;;42.87;23.83;;;;;;;0.59;86.30;96007.30;1837699;78;20991;-69
2022/12/30 03:51:42;;;;;;;41.20;24.13;;;;;;;0.60;85.94;96004.28;1837639;78;21528;-69
2022/12/30 03:54:09;;;;;;;38.97;23.13;;;;;;;0.53;85.94;95992.87;1837602;78;20983;-70
2022/12/30 03:56:35;;;;;;;48.17;28.00;;;;;;;0.49;85.95;95995.34;1832881;78;21524;-69
2022/12/30 03:59:02;;;;;;;37.93;23.60;;;;;;;0.44;86.13;95991.31;1837486;78;21038;-69
2022/12/30 04:01:28;;;;;;;28.43;18.70;;;;;;;0.41;86.04;95990.81;1837629;78;20994;-69
2022/12/30 04:03:55;;;;;;;35.73;20.83;;;;;;;0.36;85.91;95985.92;1837656;78;21510;-69
2022/12/30 04:06:21;;;;;;;31.63;18.83;;;;;;;0.34;86.16;95981.11;1837516;78;21050;-69
2022/12/30 04:08:48;;;;;;;32.07;19.20;;;;;;;0.36;86.06;95978.14;1837568;78;21070;-70
2022/12/30 04:11:15;;;;;;;55.93;28.50;;;;;;;0.34;85.80;95981.11;1837629;78;21000;-69
2022/12/30 04:13:41;;;;;;;69.10;36.97;;;;;;;0.27;86.50;95984.37;1837396;78;21047;-69
2022/12/30 04:16:08;;;;;;;61.00;31.33;;;;;;;0.21;87.13;95987.68;1837509;78;21485;-70
2022/12/30 04:18:34;;;;;;;77.20;42.13;;;;;;;0.21;87.08;95991.58;1837493;78;20999;-70
2022/12/30 04:21:01;;;;;;;44.80;25.17;;;;;;;0.22;87.19;95992.45;1837151;78;21094;-69
2022/12/30 04:23:27;;;;;;;22.77;14.77;;;;;;;0.24;87.16;95996.39;1837604;78;21008;-69
2022/12/30 04:25:54;;;;;;;43.60;23.67;;;;;;;0.24;86.99;95989.48;1836155;78;21459;-69
2022/12/30 04:28:20;;;;;;;38.13;22.13;;;;;;;0.21;87.51;95985.52;1834974;78;21043;-69
2022/12/30 04:30:50;;;;;;;33.37;20.77;;;;;;;0.21;87.41;95983.79;1835262;78;21000;-70
2022/12/30 04:33:16;;;;;;;41.23;24.63;;;;;;;0.24;87.35;95993.38;1835303;78;21038;-70
2022/12/30 04:35:43;;;;;;;48.97;27.70;;;;;;;0.29;87.53;95993.08;1835073;78;20971;-70
2022/12/30 04:38:09;;;;;;;48.13;27.87;;;;;;;0.28;87.41;95993.93;1835162;78;21012;-69
2022/12/30 04:40:35;;;;;;;43.27;24.70;;;;;;;0.29;87.55;95990.91;1835211;78;21012;-69
2022/12/30 04:43:02;;;;;;;50.10;28.87;;;;;;;0.30;87.06;95995.25;1834936;78;21023;-69
2022/12/30 04:45:28;;;;;;;51.97;30.03;;;;;;;0.34;87.55;96001.00;1835239;78;21505;-69
2022/12/30 04:47:55;;;;;;;51.27;29.00;;;;;;;0.39;87.67;95998.98;1835270;78;20952;-69
2022/12/30 04:50:21;;;;;;;39.63;21.97;;;;;;;0.43;87.58;95995.64;1835169;78;21007;-69
2022/12/30 04:52:47;;;;;;;37.83;22.10;;;;;;;0.50;87.79;96000.55;1835264;78;20983;-69
2022/12/30 04:55:14;;;;;;;33.00;19.93;;;;;;;0.56;87.67;95999.44;1835149;78;21015;-70
2022/12/30 04:57:41;;;;;;;25.43;17.03;;;;;;;0.60;87.73;95999.95;1835055;78;20979;-70
2022/12/30 05:00:09;;;;;;;22.83;13.97;;;;;;;0.59;87.26;95989.55;1835109;78;21004;-69
2022/12/30 05:02:36;;;;;;;19.40;12.93;;;;;;;0.62;87.40;95989.20;1835174;78;21465;-69
2022/12/30 05:05:04;;;;;;;22.40;14.37;;;;;;;0.67;87.62;95980.66;1834649;78;20976;-69
2022/12/30 05:07:30;;;;;;;30.77;16.77;;;;;;;0.68;87.37;95993.70;1835228;78;20988;-69
2022/12/30 05:09:57;;;;;;;37.17;21.83;;;;;;;0.69;87.62;95989.38;1834966;78;21513;-69
2022/12/30 05:12:24;;;;;;;40.13;22.83;;;;;;;0.74;87.94;95985.17;1834699;78;20976;-69
2022/12/30 05:14:50;;;;;;;35.27;21.10;;;;;;;0.75;87.96;95982.59;1835219;78;21473;-69
2022/12/30 05:17:17;;;;;;;30.33;18.00;;;;;;;0.80;88.11;95988.78;1802093;78;20960;-69
2022/12/30 05:19:43;;;;;;;25.10;13.83;;;;;;;0.80;87.58;95995.28;1834859;78;21023;-69
2022/12/30 05:22:10;;;;;;;17.37;11.57;;;;;;;0.79;87.52;95994.83;1835283;78;21031;-69
2022/12/30 05:27:21;;;;;;;38.13;21.37;;;;;;;0.84;87.97;96003.62;1835101;78;20984;-70
2022/12/30 05:29:48;;;;;;;39.53;21.93;;;;;;;0.81;88.11;96005.28;1835294;78;21046;-69
2022/12/30 05:32:14;;;;;;;39.57;24.00;;;;;;;0.80;88.00;96000.90;1835112;78;20995;-69
2022/12/30 05:34:41;;;;;;;36.43;21.90;;;;;;;0.80;88.24;96003.50;1835211;78;21031;-69
2022/12/30 05:37:07;;;;;;;34.63;21.83;;;;;;;0.77;88.10;96012.52;1835204;78;21046;-69
2022/12/30 05:39:33;;;;;;;35.37;23.87;;;;;;;0.76;88.11;96011.64;1834978;78;20960;-69
2022/12/30 05:42:00;;;;;;;40.47;23.77;;;;;;;0.78;88.00;96014.27;1835225;78;20989;-69
2022/12/30 05:44:27;;;;;;;37.00;20.90;;;;;;;0.84;88.35;96021.80;1835015;78;20964;-69
2022/12/30 05:46:54;;;;;;;39.27;21.87;;;;;;;0.91;88.43;96020.64;1835017;78;20988;-69
2022/12/30 05:49:20;;;;;;;34.77;22.10;;;;;;;0.90;87.71;96030.59;1835091;78;21050;-69
2022/12/30 05:51:47;;;;;;;35.17;20.93;;;;;;;0.92;88.17;96023.72;1835158;78;20995;-70
2022/12/30 05:54:14;;;;;;;29.73;18.43;;;;;;;0.94;88.12;96019.02;1835012;78;21058;-70
2022/12/30 05:56:40;;;;;;;29.77;18.60;;;;;;;0.93;87.96;96026.77;1835189;78;21043;-70
2022/12/30 05:59:09;;;;;;;29.00;18.70;;;;;;;0.98;88.37;96026.46;1834906;78;20948;-70
2022/12/30 06:01:37;;;;;;;61.00;33.30;;;;;;;1.00;88.86;96034.75;1835087;78;20984;-70
2022/12/30 06:04:04;;;;;;;71.63;36.53;;;;;;;1.05;88.93;96040.07;1835120;78;20996;-70
2022/12/30 06:06:31;;;;;;;68.37;33.67;;;;;;;1.07;88.90;96043.16;1835019;78;21007;-70
2022/12/30 06:08:57;;;;;;;54.80;30.17;;;;;;;1.12;88.72;96045.02;1835337;78;21018;-70
2022/12/30 06:11:24;;;;;;;59.73;33.07;;;;;;;1.09;89.04;96052.31;1835039;78;21016;-70
2022/12/30 06:13:50;;;;;;;62.87;35.33;;;;;;;1.05;88.46;96054.36;1834940;78;21038;-70
2022/12/30 06:16:17;;;;;;;55.83;32.33;;;;;;;1.05;88.49;96052.64;1835137;78;21000;-70
2022/12/30 06:18:43;;;;;;;82.53;39.87;;;;;;;1.09;88.50;96047.12;1835097;78;21003;-70
2022/12/30 06:21:09;;;;;;;55.40;32.67;;;;;;;1.04;88.03;96039.20;1835060;78;21489;-70
2022/12/30 06:23:36;;;;;;;75.87;44.97;;;;;;;1.03;88.27;96043.05;1835208;78;20975;-70
2022/12/30 06:26:03;;;;;;;86.93;46.43;;;;;;;1.06;88.26;96035.35;1835064;78;21054;-70
2022/12/30 06:28:30;;;;;;;86.83;49.83;;;;;;;1.04;88.78;96043.09;1834940;78;20948;-70
2022/12/30 06:30:57;;;;;;;66.43;38.43;;;;;;;1.07;89.16;96042.30;1835188;78;21485;-70
2022/12/30 06:33:24;;;;;;;57.60;31.90;;;;;;;1.13;89.33;96042.86;1835097;78;21007;-70
2022/12/30 06:35:51;;;;;;;61.00;36.37;;;;;;;1.12;88.88;96042.41;1835086;78;20968;-70
2022/12/30 06:38:18;;;;;;;95.27;55.63;;;;;;;1.10;88.60;96043.66;1802189;78;21010;-70
2022/12/30 06:40:45;;;;;;;86.60;50.33;;;;;;;1.10;88.79;96039.77;1835130;78;20983;-70
2022/12/30 06:43:13;;;;;;;55.17;34.90;;;;;;;1.12;88.94;96040.69;1834914;78;21521;-70
2022/12/30 06:45:39;;;;;;;50.67;29.37;;;;;;;1.15;89.32;96046.38;1835141;78;21564;-70
2022/12/30 06:48:06;;;;;;;41.77;24.87;;;;;;;1.18;89.27;96039.95;1835088;78;20979;-70
2022/12/30 06:50:33;;;;;;;38.87;23.63;;;;;;;1.17;89.17;96046.88;1835106;78;21074;-70
2022/12/30 06:52:59;;;;;;;37.87;23.27;;;;;;;1.20;89.10;96048.67;1835220;78;20987;-70
2022/12/30 06:55:26;;;;;;;36.70;23.63;;;;;;;1.20;89.12;96051.27;1834986;78;21497;-70
2022/12/30 06:57:52;;;;;;;35.33;22.13;;;;;;;1.18;88.69;96044.73;1835012;78;20999;-70
2022/12/30 07:00:19;;;;;;;35.97;21.77;;;;;;;1.17;88.60;96046.88;1835097;78;20960;-70
2022/12/30 07:02:45;;;;;;;33.13;21.37;;;;;;;1.20;88.63;96049.98;1835115;78;21504;-71
2022/12/30 07:05:12;;;;;;;35.93;22.83;;;;;;;1.19;88.57;96046.93;1835138;78;20964;-71
2022/12/30 07:07:38;;;;;;;35.10;21.23;;;;;;;1.22;88.84;96054.80;1834901;78;21470;-71
2022/12/30 07:10:05;;;;;;;38.27;24.13;;;;;;;1.24;88.65;96064.39;1835109;78;21023;-71
2022/12/30 07:12:32;;;;;;;36.50;22.07;;;;;;;1.28;88.88;96069.23;1835142;78;21019;-72
2022/12/30 07:14:58;;;;;;;36.10;21.93;;;;;;;1.33;88.75;96065.02;1835106;78;20944;-72
2022/12/30 07:17:25;;;;;;;36.67;21.87;;;;;;;1.33;88.47;96063.72;1835009;78;21449;-72
2022/12/30 07:19:52;;;;;;;34.30;22.13;;;;;;;1.37;88.49;96060.80;1835027;78;21055;-71
2022/12/30 07:22:18;;;;;;;33.90;22.63;;;;;;;1.40;88.23;96067.36;1835145;78;21014;-71
2022/12/30 07:24:45;;;;;;;34.97;22.33;;;;;;;1.41;88.20;96069.11;1835018;78;20956;-71
2022/12/30 07:27:12;;;;;;;33.23;22.13;;;;;;;1.44;88.42;96067.91;1832110;78;21094;-72
2022/12/30 07:29:39;;;;;;;39.00;22.17;;;;;;;1.43;88.48;96075.23;1834805;78;21027;-71
2022/12/30 07:32:06;;;;;;;39.53;22.63;;;;;;;1.47;88.62;96073.17;1835297;78;21011;-71
2022/12/30 07:34:37;;;;;;;35.67;22.43;;;;;;;1.47;88.13;96075.77;1802221;78;21528;-71
2022/12/30 07:37:04;;;;;;;35.17;22.43;;;;;;;1.44;88.01;96073.11;1835223;78;21003;-71
2022/12/30 07:39:32;;;;;;;37.67;23.03;;;;;;;1.47;87.96;96074.05;1835124;78;21007;-71
2022/12/30 07:41:59;;;;;;;39.37;23.87;;;;;;;1.49;88.08;96074.09;1835190;78;21545;-71
2022/12/30 07:44:25;;;;;;;41.87;24.70;;;;;;;1.56;88.21;96085.08;1834856;78;20999;-72
2022/12/30 07:46:52;;;;;;;40.53;24.67;;;;;;;1.58;87.89;96076.89;1835279;78;21019;-73
2022/12/30 07:49:19;;;;;;;38.27;25.60;;;;;;;1.58;87.91;96073.42;1835165;78;21465;-73
2022/12/30 07:51:45;;;;;;;41.93;25.63;;;;;;;1.62;88.20;96085.67;1835224;78;21031;-72
2022/12/30 07:54:12;;;;;;;40.70;23.73;;;;;;;1.66;88.42;96092.28;1835393;78;21035;-72
2022/12/30 07:56:38;;;;;;;35.00;23.47;;;;;;;1.71;88.48;96087.16;1835165;78;20995;-71
2022/12/30 07:59:05;;;;;;;39.47;23.70;;;;;;;1.75;88.41;96094.20;1835112;78;20999;-71
2022/12/30 08:01:31;;;;;;;37.40;24.17;;;;;;;1.82;88.69;96090.04;1835169;78;21012;-70
2022/12/30 08:03:58;;;;;;;38.70;25.60;;;;;;;1.84;88.18;96100.94;1835291;78;20983;-70
2022/12/30 08:06:24;;;;;;;42.13;25.07;;;;;;;1.86;88.25;96094.02;1835260;78;21026;-70
2022/12/30 08:08:51;;;;;;;47.07;27.30;;;;;;;1.92;88.29;96091.58;1835269;78;21498;-70
2022/12/30 08:11:17;;;;;;;43.27;26.07;;;;;;;1.95;88.05;96093.37;1835308;78;20951;-70
2022/12/30 08:13:44;;;;;;;43.00;26.70;;;;;;;1.92;88.04;96101.11;1835079;78;20999;-70
2022/12/30 08:16:14;;;;;;;45.70;29.47;;;;;;;1.91;87.80;96099.34;1835273;78;20964;-70
2022/12/30 08:18:42;;;;;;;44.77;26.27;;;;;;;1.88;87.77;96096.67;1835198;78;21058;-70
2022/12/30 08:21:13;;;;;;;41.00;27.13;;;;;;;1.84;88.44;96096.13;1835172;78;21012;-70
2022/12/30 08:23:40;;;;;;;62.57;43.73;;;;;;;1.84;88.58;96097.43;1835320;78;21035;-70
2022/12/30 08:26:10;;;;;;;67.40;42.50;;;;;;;1.82;88.73;96098.72;1835272;78;21045;-69
2022/12/30 08:28:37;;;;;;;96.57;59.13;;;;;;;1.84;88.98;96100.94;1838538;78;20999;-70
2022/12/30 08:31:13;;;;;;;85.27;53.10;;;;;;;1.85;88.91;96102.68;1840799;78;21022;-70
2022/12/30 08:33:39;;;;;;;70.00;43.73;;;;;;;1.91;89.12;96104.54;1840129;78;21038;-70
2022/12/30 08:36:10;;;;;;;69.97;41.80;;;;;;;2.02;89.19;96109.58;1840797;78;21504;-70
2022/12/30 08:38:40;;;;;;;70.60;48.53;;;;;;;2.04;88.99;96111.80;1840748;78;21023;-70
2022/12/30 08:41:11;;;;;;;83.87;51.17;;;;;;;2.08;88.71;96116.22;1840666;78;21006;-70
2022/12/30 08:43:38;;;;;;;72.77;44.50;;;;;;;2.11;88.96;96112.38;1840709;78;21019;-70
2022/12/30 08:46:05;;;;;;;83.37;58.57;;;;;;;2.18;89.01;96112.53;1840782;78;21038;-70
2022/12/30 08:48:32;;;;;;;79.40;51.33;;;;;;;2.22;88.86;96109.13;1840762;78;21489;-70
2022/12/30 08:51:00;;;;;;;82.87;51.20;;;;;;;2.27;89.08;96114.01;1807557;78;21051;-70
2022/12/30 08:53:27;;;;;;;83.13;49.13;;;;;;;2.32;89.13;96105.47;1840723;78;20992;-71
2022/12/30 08:56:10;;;;;;;83.13;50.60;;;;;;;2.36;88.97;96115.52;1840583;78;21500;-71
2022/12/30 08:58:36;;;;;;;88.78;53.05;;;;;;;2.36;88.67;96113.78;1840962;78;20987;-71
2022/12/30 09:01:13;;;;;;;87.20;52.97;;;;;;;2.35;88.77;96111.17;1840617;78;21074;-71
2022/12/30 09:03:44;;;;;;;103.20;63.23;;;;;;;2.33;88.91;96111.55;1839125;78;21046;-71
2022/12/30 09:06:14;;;;;;;110.10;68.43;;;;;;;2.34;89.03;96110.30;1840664;78;21547;-71
2022/12/30 09:08:40;;;;;;;83.50;51.03;;;;;;;2.34;89.16;96115.50;1840792;78;20987;-71
2022/12/30 09:11:11;;;;;;;81.00;48.97;;;;;;;2.37;89.03;96113.39;1840812;78;21465;-71
2022/12/30 09:13:40;;;;;;;81.20;48.20;;;;;;;2.38;88.86;96111.23;1840771;78;20995;-71
2022/12/30 09:16:11;;;;;;;85.37;53.67;;;;;;;2.41;88.70;96113.02;1840554;78;21044;-71
2022/12/30 09:18:38;;;;;;;86.47;54.07;;;;;;;2.39;88.73;96111.67;1840945;78;21027;-71
2022/12/30 09:21:05;;;;;;;82.77;51.43;;;;;;;2.44;89.07;96108.73;1840759;78;21069;-71
2022/12/30 09:23:32;;;;;;;81.07;50.40;;;;;;;2.51;89.30;96105.85;1840735;78;21048;-71
2022/12/30 09:25:59;;;;;;;83.87;51.10;;;;;;;2.55;89.23;96099.44;1840729;78;21038;-71
2022/12/30 09:28:26;;;;;;;77.30;49.73;;;;;;;2.64;89.24;96096.13;1836428;78;21007;-70
2022/12/30 09:30:53;;;;;;;73.13;45.10;;;;;;;2.69;89.52;96097.52;1831431;78;21498;-71
2022/12/30 09:33:19;;;;;;;66.70;43.17;;;;;;;2.71;89.51;96093.23;1831660;78;20983;-72
2022/12/30 09:35:45;;;;;;;67.80;43.00;;;;;;;2.72;89.33;96100.18;1831830;78;21481;-72
2022/12/30 09:38:12;;;;;;;67.93;42.47;;;;;;;2.75;89.41;96098.97;1831655;78;21326;-72
2022/12/30 09:40:59;;;;;;;111.37;68.20;;;;;;;2.78;89.32;96093.81;1831767;78;21510;-71
2022/12/30 09:44:02;;;;;;;109.03;65.20;;;;;;;2.81;89.15;96083.44;1826796;78;21068;-70
2022/12/30 09:46:52;;;;;;;98.20;60.70;;;;;;;2.83;89.29;96084.78;1831589;78;20968;-71
2022/12/30 09:49:40;;;;;;;82.57;53.37;;;;;;;2.90;89.78;96082.31;1831624;78;20968;-71
2022/12/30 09:52:41;;;;;;;81.43;51.50;;;;;;;3.00;89.73;96078.16;1831536;78;20999;-72
2022/12/30 09:55:23;;;;;;;84.13;54.87;;;;;;;3.07;89.28;96081.30;1799035;78;21776;-72
2022/12/30 09:57:55;;;;;;;119.53;73.17;;;;;;;3.16;89.57;96080.61;1831525;78;21509;-71
2022/12/30 10:00:23;;;;;;;136.03;80.83;;;;;;;3.26;90.20;96085.13;1831599;78;20999;-71
2022/12/30 10:03:12;;;;;;;110.27;67.10;;;;;;;3.34;90.03;96076.13;1831699;78;21043;-71
2022/12/30 10:06:08;;;;;;;103.83;65.40;;;;;;;3.43;90.00;96062.83;1831415;78;21012;-70
2022/12/30 10:09:16;;;;;;;91.90;57.63;;;;;;;3.49;89.53;96062.04;1831638;78;21043;-70
2022/12/30 10:12:20;;;;;;;72.57;46.50;;;;;;;3.56;89.49;96061.29;1831624;78;20988;-70
2022/12/30 10:15:25;;;;;;;78.67;45.47;;;;;;;3.67;89.87;96067.97;1831303;78;20984;-70
2022/12/30 10:18:20;;;;;;;65.40;41.10;;;;;;;3.78;89.96;96060.30;1831670;78;21033;-70
2022/12/30 10:21:11;;;;;;;59.43;40.03;;;;;;;3.87;90.35;96059.14;1825477;78;21000;-70
2022/12/30 10:24:03;;;;;;;52.37;34.07;;;;;;;3.97;90.33;96054.94;1795914;78;20956;-70
2022/12/30 10:26:35;;;;;;;54.40;35.43;;;;;;;4.05;90.04;96053.30;1831051;78;21517;-69
2022/12/30 10:29:21;;;;;;;50.70;33.23;;;;;;;4.10;89.74;96051.63;1832252;78;21020;-69
2022/12/30 10:31:51;;;;;;;49.40;34.33;;;;;;;4.13;89.61;96050.36;1834839;78;21043;-69
2022/12/30 10:34:22;;;;;;;51.40;34.60;;;;;;;4.14;89.70;96044.30;1834876;78;20976;-69
2022/12/30 10:37:05;;;;;;;45.47;30.63;;;;;;;4.10;89.90;96047.28;1835106;78;21055;-69
2022/12/30 10:39:35;;;;;;;43.83;29.27;;;;;;;4.11;89.77;96042.52;1835250;78;20983;-69
2022/12/30 10:42:28;;;;;;;44.73;28.13;;;;;;;4.09;89.82;96044.23;1835004;78;20987;-69
2022/12/30 10:45:27;;;;;;;41.95;25.55;;;;;;;4.14;90.08;96043.43;1835064;78;20972;-70
2022/12/30 10:48:23;;;;;;;43.90;27.90;;;;;;;4.22;90.74;96030.91;1833609;78;21493;-70
2022/12/30 10:50:53;;;;;;;42.57;26.00;;;;;;;4.31;90.69;96028.86;1835200;78;21000;-70
2022/12/30 10:53:29;;;;;;;43.03;27.27;;;;;;;4.45;90.40;96033.80;1835194;78;20999;-70
2022/12/30 10:56:00;;;;;;;40.97;26.13;;;;;;;4.55;90.13;96025.20;1834973;78;21000;-70
2022/12/30 10:58:43;;;;;;;46.80;30.97;;;;;;;4.63;90.07;96030.52;1835131;78;21003;-70
2022/12/30 11:01:20;;;;;;;37.73;24.52;;;;;;;4.63;89.81;96033.58;1834970;78;21020;-70
2022/12/30 11:03:52;;;;;;;42.60;27.10;;;;;;;4.63;90.00;96021.38;1835059;78;21465;-70
2022/12/30 11:06:33;;;;;;;36.75;25.57;;;;;;;4.62;90.12;96015.72;1835300;78;20964;-70
2022/12/30 11:09:16;;;;;;;35.13;24.23;;;;;;;4.63;90.55;96018.77;1833145;78;21035;-70
2022/12/30 11:14:43;;;;;;;62.57;43.70;;;;;;;4.77;90.35;96009.78;1834924;78;20133;-69
2022/12/30 11:17:26;;;;;;;37.03;24.53;;;;;;;4.78;90.26;96011.52;1835094;78;20972;-69
2022/12/30 11:20:04;;;;;;;49.50;31.20;;;;;;;4.80;91.46;96011.55;1835314;78;21090;-69
2022/12/30 11:22:31;;;;;;;35.07;22.83;;;;;;;4.81;90.70;96010.23;1835304;78;20976;-69
2022/12/30 11:25:06;;;;;;;59.37;33.63;;;;;;;4.97;91.76;95994.30;1834965;78;21077;-70
2022/12/30 11:27:47;;;;;;;44.07;28.43;;;;;;;5.06;91.37;96000.90;1833310;78;21074;-70
2022/12/30 11:30:37;;;;;;;46.40;29.67;;;;;;;5.09;91.37;95992.20;1831206;78;21043;-70
2022/12/30 11:33:07;;;;;;;37.37;24.10;;;;;;;5.18;91.17;95995.78;1831224;78;21016;-69
2022/12/30 11:35:44;;;;;;;35.67;24.90;;;;;;;5.22;91.02;96004.55;1826970;78;21015;-69
2022/12/30 11:38:40;;;;;;;42.70;29.30;;;;;;;5.21;90.80;96001.03;1831646;78;21114;-69
2022/12/30 11:41:31;;;;;;;14.70;9.00;;;;;;;5.27;90.81;96000.67;1831852;78;21042;-69
2022/12/30 11:44:05;;;;;;;34.03;25.03;;;;;;;5.35;91.27;96000.30;1831595;78;21042;-69
2022/12/30 11:47:01;;;;;;;31.50;23.30;;;;;;;5.47;91.00;96001.70;1831460;78;21395;-69
2022/12/30 11:49:50;;;;;;;25.13;17.47;;;;;;;5.60;91.19;96000.92;1828904;78;21062;-69
2022/12/30 11:52:26;;;;;;;46.90;21.83;;;;;;;6.03;91.76;96002.97;1830172;78;21035;-68
2022/12/30 11:55:00;;;;;;;28.90;19.67;;;;;;;6.49;91.90;95990.94;1831720;78;21010;-68
2022/12/30 11:57:41;;;;;;;22.00;15.47;;;;;;;6.82;90.38;95987.11;1831554;78;21046;-68
2022/12/30 12:00:19;;;;;;;20.83;15.13;;;;;;;6.91;89.32;95978.83;1831269;78;21078;-69
2022/12/30 12:02:51;;;;;;;16.87;11.23;;;;;;;7.18;89.69;95991.52;1831820;78;20992;-68
2022/12/30 12:05:25;;;;;;;17.83;13.07;;;;;;;7.54;89.39;95985.87;1830257;78;20988;-68
2022/12/30 12:08:09;;;;;;;9.50;7.53;;;;;;;7.79;88.73;95977.53;1799789;78;20979;-68
2022/12/30 12:10:36;;;;;;;;;;;;;;;7.81;86.11;95977.06;1786430;78;21008;-69
2022/12/30 12:13:14;;;;;;;4.42;3.37;;;;;;;8.02;86.40;95976.16;1831768;78;20180;-69
2022/12/30 12:15:46;;;;;;;9.73;7.05;;;;;;;8.31;87.71;95976.50;1818466;78;21011;-69
2022/12/30 12:18:45;;;;;;;4.50;2.40;;;;;;;8.45;83.78;95983.94;1831704;78;20983;-69
2022/12/30 12:21:30;;;;;;;72.27;35.88;;;;;;;8.36;80.17;95984.80;1831563;78;21023;-68
2022/12/30 12:24:37;;;;;;;6.67;3.80;;;;;;;8.27;79.21;95984.84;1831740;78;20956;-69
2022/12/30 12:27:17;;;;;;;126.97;98.00;;;;;;;8.24;81.83;95983.11;1831578;78;21008;-68
2022/12/30 12:29:45;;;;;;;8.13;7.33;;;;;;;8.16;81.58;95979.60;1831119;78;21063;-68
2022/12/30 12:32:47;;;;;;;4.70;3.08;;;;;;;8.14;81.98;95975.23;1831038;78;21003;-69
2022/12/30 12:35:25;;;;;;;1.67;1.17;;;;;;;8.06;78.59;95986.21;1831726;78;21557;-69
2022/12/30 12:38:35;;;;;;;1.87;1.10;;;;;;;8.05;81.38;95987.97;1816229;78;21509;-69
2022/12/30 12:41:27;;;;;;;1.45;1.35;;;;;;;8.12;81.98;95983.14;1831361;78;21487;-69
2022/12/30 12:44:32;;;;;;;2.65;2.17;;;;;;;8.23;80.80;95984.41;1831628;78;21062;-69
2022/12/30 12:47:15;;;;;;;2.42;1.70;;;;;;;8.34;78.40;95972.53;1831656;78;21016;-69
2022/12/30 12:50:04;;;;;;;2.00;1.17;;;;;;;8.38;78.85;95984.80;1830559;78;20960;-69